createdAt,value
2019-04-01T00:05:57.628Z,5.8
2019-04-01T00:21:10.144Z,5.9
2019-04-01T00:36:22.780Z,6.2
2019-04-01T00:51:25.252Z,6.2
2019-04-01T01:06:48.006Z,6
2019-04-01T01:22:00.607Z,6
2019-04-01T01:37:13.122Z,5.6
2019-04-01T01:52:25.507Z,5.2
2019-04-01T02:07:36.259Z,5.1
2019-04-01T02:22:49.948Z,5
2019-04-01T02:38:02.081Z,4.7
2019-04-01T02:53:14.241Z,4.6
2019-04-01T03:08:18.986Z,4.6
2019-04-01T03:23:38.299Z,4.5
2019-04-01T03:38:50.373Z,4.5
2019-04-01T03:54:02.342Z,4.4
2019-04-01T04:09:14.346Z,4.3
2019-04-01T04:24:26.268Z,4.1
2019-04-01T04:39:38.106Z,3.9
2019-04-01T04:54:49.924Z,3.9
2019-04-01T05:10:01.746Z,3.9
2019-04-01T05:25:09.871Z,4
2019-04-01T05:40:25.487Z,4
2019-04-01T05:55:37.442Z,4.1
2019-04-01T06:10:49.299Z,4.1
2019-04-01T06:25:54.543Z,4.5
2019-04-01T06:41:13.634Z,5.6
2019-04-01T06:56:26.157Z,5.8
2019-04-01T07:11:38.778Z,6
2019-04-01T07:26:51.429Z,6
2019-04-01T07:42:04.071Z,6.3
2019-04-01T07:57:16.905Z,6.7
2019-04-01T08:12:21.294Z,7.2
2019-04-01T08:27:43.140Z,8
2019-04-01T08:42:56.739Z,8.6
2019-04-01T08:58:10.434Z,9.3
2019-04-01T09:13:12.743Z,9.8
2019-04-01T09:28:38.660Z,10.4
2019-04-01T09:43:53.099Z,11.2
2019-04-01T09:59:07.891Z,11.8
2019-04-01T10:14:23.047Z,11.7
2019-04-01T10:29:32.071Z,11.8
2019-04-01T10:44:54.175Z,12.2
2019-04-01T11:00:10.425Z,12.5
2019-04-01T11:15:26.841Z,12.6
2019-04-01T11:30:43.896Z,13.1
2019-04-01T11:45:53.650Z,13.2
2019-04-01T12:01:18.613Z,13.2
2019-04-01T12:16:36.318Z,13.4
2019-04-01T12:31:54.412Z,13.6
2019-04-01T12:47:12.813Z,13.7
2019-04-01T13:02:18.197Z,13.8
2019-04-01T13:17:45.966Z,14
2019-04-01T13:33:08.791Z,14.1
2019-04-01T13:48:28.383Z,14.1
2019-04-01T14:03:47.183Z,14
2019-04-01T14:19:06.263Z,14.1
2019-04-01T14:34:13.474Z,14
2019-04-01T14:49:39.521Z,13.9
2019-04-01T15:05:04.804Z,13.5
2019-04-01T15:20:21.394Z,13.4
2019-04-01T15:35:39.722Z,13.3
2019-04-01T15:50:57.775Z,12.9
2019-04-01T16:06:02.941Z,12.8
2019-04-01T16:21:31.482Z,12.7
2019-04-01T16:36:50.664Z,14.9
2019-04-01T16:52:08.518Z,14.2
2019-04-01T17:07:26.555Z,13.3
2019-04-01T17:22:43.584Z,13
2019-04-01T17:37:53.402Z,12.5
2019-04-01T17:53:14.393Z,11.8
2019-04-01T18:08:28.954Z,10.8
2019-04-01T18:23:43.042Z,10.2
2019-04-01T18:38:45.245Z,9.9
2019-04-01T18:54:11.308Z,9.7
2019-04-01T19:09:24.964Z,9.3
2019-04-01T19:24:38.607Z,9
2019-04-01T19:39:52.590Z,8.6
2019-04-01T19:55:03.402Z,10.4
2019-04-01T20:10:20.209Z,10.2
2019-04-01T20:25:34.052Z,9
2019-04-01T20:40:47.608Z,8.3
2019-04-01T20:55:51.205Z,8
2019-04-01T21:11:14.264Z,7.6
2019-04-01T21:26:27.751Z,7.4
2019-04-01T21:41:40.411Z,7.2
2019-04-01T21:56:53.446Z,7.2
2019-04-01T22:12:03.782Z,7.1
2019-04-01T22:27:19.487Z,6.9
2019-04-01T22:42:32.300Z,6.7
2019-04-01T22:57:45.148Z,6.6
2019-04-01T23:12:48.881Z,6.2
2019-04-01T23:28:10.531Z,6.3
2019-04-01T23:43:23.212Z,6.2
2019-04-01T23:58:35.916Z,6.1
